sensor_id;sensor_type;location;lat;lon;timestamp;temperature;humidity
33761;DHT22;20084;47.912;19.044;2023-03-23T00:00:08;9.50;99.90
33761;DHT22;20084;47.912;19.044;2023-03-23T00:02:34;9.00;99.90
33761;DHT22;20084;47.912;19.044;2023-03-23T00:05:06;8.60;99.90
33761;DHT22;20084;47.912;19.044;2023-03-23T00:07:33;8.20;99.90
33761;DHT22;20084;47.912;19.044;2023-03-23T00:10:00;8.10;99.90
33761;DHT22;20084;47.912;19.044;2023-03-23T00:12:30;8.10;99.90
33761;DHT22;20084;47.912;19.044;2023-03-23T00:15:03;8.00;99.90
33761;DHT22;20084;47.912;19.044;2023-03-23T00:17:30;8.10;99.90
33761;DHT22;20084;47.912;19.044;2023-03-23T00:19:58;8.00;99.90
33761;DHT22;20084;47.912;19.044;2023-03-23T00:22:28;7.90;99.90
33761;DHT22;20084;47.912;19.044;2023-03-23T00:24:54;7.90;99.90
33761;DHT22;20084;47.912;19.044;2023-03-23T00:27:20;7.90;99.90
33761;DHT22;20084;47.912;19.044;2023-03-23T00:29:50;8.00;99.90
33761;DHT22;20084;47.912;19.044;2023-03-23T00:32:22;8.10;99.90
33761;DHT22;20084;47.912;19.044;2023-03-23T00:34:52;8.30;99.90
33761;DHT22;20084;47.912;19.044;2023-03-23T00:37:18;8.20;99.90
33761;DHT22;20084;47.912;19.044;2023-03-23T00:39:44;7.90;99.90
33761;DHT22;20084;47.912;19.044;2023-03-23T00:42:15;7.80;99.90
33761;DHT22;20084;47.912;19.044;2023-03-23T00:44:42;7.70;99.90
33761;DHT22;20084;47.912;19.044;2023-03-23T00:47:10;7.70;99.90
33761;DHT22;20084;47.912;19.044;2023-03-23T00:49:36;7.70;99.90
33761;DHT22;20084;47.912;19.044;2023-03-23T00:52:03;7.60;99.90
33761;DHT22;20084;47.912;19.044;2023-03-23T00:54:30;7.40;99.90
33761;DHT22;20084;47.912;19.044;2023-03-23T00:56:56;7.30;99.90
33761;DHT22;20084;47.912;19.044;2023-03-23T00:59:22;7.30;99.90
33761;DHT22;20084;47.912;19.044;2023-03-23T01:01:48;7.20;99.90
33761;DHT22;20084;47.912;19.044;2023-03-23T01:04:15;7.00;99.90
33761;DHT22;20084;47.912;19.044;2023-03-23T01:06:42;6.80;99.90
33761;DHT22;20084;47.912;19.044;2023-03-23T01:09:13;6.80;99.90
33761;DHT22;20084;47.912;19.044;2023-03-23T01:11:41;6.70;99.90
33761;DHT22;20084;47.912;19.044;2023-03-23T01:14:07;6.70;99.90
33761;DHT22;20084;47.912;19.044;2023-03-23T01:16:33;6.60;99.90
33761;DHT22;20084;47.912;19.044;2023-03-23T01:18:59;6.60;99.90
33761;DHT22;20084;47.912;19.044;2023-03-23T01:21:25;6.50;99.90
33761;DHT22;20084;47.912;19.044;2023-03-23T01:23:50;6.50;99.90
33761;DHT22;20084;47.912;19.044;2023-03-23T01:26:20;6.50;99.90
33761;DHT22;20084;47.912;19.044;2023-03-23T01:28:46;6.50;99.90
33761;DHT22;20084;47.912;19.044;2023-03-23T01:31:15;6.50;99.90
33761;DHT22;20084;47.912;19.044;2023-03-23T01:33:41;6.50;99.90
33761;DHT22;20084;47.912;19.044;2023-03-23T01:36:14;6.40;99.90
33761;DHT22;20084;47.912;19.044;2023-03-23T01:38:41;6.40;99.90
33761;DHT22;20084;47.912;19.044;2023-03-23T01:41:07;6.20;99.90
33761;DHT22;20084;47.912;19.044;2023-03-23T01:43:33;6.10;99.90
33761;DHT22;20084;47.912;19.044;2023-03-23T01:45:59;6.00;99.90
33761;DHT22;20084;47.912;19.044;2023-03-23T01:48:35;6.00;99.90
33761;DHT22;20084;47.912;19.044;2023-03-23T01:51:12;6.00;99.90
33761;DHT22;20084;47.912;19.044;2023-03-23T01:53:50;6.10;99.90
33761;DHT22;20084;47.912;19.044;2023-03-23T01:56:19;6.10;99.90
33761;DHT22;20084;47.912;19.044;2023-03-23T01:58:46;6.00;99.90
33761;DHT22;20084;47.912;19.044;2023-03-23T02:01:13;5.90;99.90
33761;DHT22;20084;47.912;19.044;2023-03-23T02:03:43;5.90;99.90
33761;DHT22;20084;47.912;19.044;2023-03-23T02:06:10;5.90;99.90
33761;DHT22;20084;47.912;19.044;2023-03-23T02:08:36;5.90;99.90
33761;DHT22;20084;47.912;19.044;2023-03-23T02:11:13;5.90;99.90
33761;DHT22;20084;47.912;19.044;2023-03-23T02:13:39;6.00;99.90
33761;DHT22;20084;47.912;19.044;2023-03-23T02:18:52;6.00;99.90
33761;DHT22;20084;47.912;19.044;2023-03-23T02:26:57;5.80;99.90
33761;DHT22;20084;47.912;19.044;2023-03-23T02:30:04;5.80;99.90
33761;DHT22;20084;47.912;19.044;2023-03-23T02:32:41;5.80;99.90
33761;DHT22;20084;47.912;19.044;2023-03-23T02:35:23;5.90;99.90
33761;DHT22;20084;47.912;19.044;2023-03-23T02:38:00;6.10;99.90
33761;DHT22;20084;47.912;19.044;2023-03-23T02:40:35;6.10;99.90
33761;DHT22;20084;47.912;19.044;2023-03-23T02:43:03;6.00;99.90
33761;DHT22;20084;47.912;19.044;2023-03-23T02:45:34;5.70;99.90
33761;DHT22;20084;47.912;19.044;2023-03-23T02:48:02;5.60;99.90
33761;DHT22;20084;47.912;19.044;2023-03-23T02:50:30;5.50;99.90
33761;DHT22;20084;47.912;19.044;2023-03-23T02:52:57;5.50;99.90
33761;DHT22;20084;47.912;19.044;2023-03-23T02:55:24;5.50;99.90
33761;DHT22;20084;47.912;19.044;2023-03-23T02:57:52;5.50;99.90
33761;DHT22;20084;47.912;19.044;2023-03-23T03:00:19;5.50;99.90
33761;DHT22;20084;47.912;19.044;2023-03-23T03:02:53;5.40;99.90
33761;DHT22;20084;47.912;19.044;2023-03-23T03:05:32;5.40;99.90
33761;DHT22;20084;47.912;19.044;2023-03-23T03:10:49;5.50;99.90
33761;DHT22;20084;47.912;19.044;2023-03-23T03:16:21;5.30;99.90
33761;DHT22;20084;47.912;19.044;2023-03-23T03:19:34;5.10;99.90
33761;DHT22;20084;47.912;19.044;2023-03-23T03:21:42;5.00;99.90
33761;DHT22;20084;47.912;19.044;2023-03-23T03:24:10;5.00;99.90
33761;DHT22;20084;47.912;19.044;2023-03-23T03:26:43;5.10;99.90
33761;DHT22;20084;47.912;19.044;2023-03-23T03:29:16;5.10;99.90
33761;DHT22;20084;47.912;19.044;2023-03-23T03:31:44;5.10;99.90
33761;DHT22;20084;47.912;19.044;2023-03-23T03:34:11;5.20;99.90
33761;DHT22;20084;47.912;19.044;2023-03-23T03:36:40;5.20;99.90
33761;DHT22;20084;47.912;19.044;2023-03-23T03:39:08;5.10;99.90
33761;DHT22;20084;47.912;19.044;2023-03-23T03:41:36;5.00;99.90
33761;DHT22;20084;47.912;19.044;2023-03-23T03:44:03;5.00;99.90
33761;DHT22;20084;47.912;19.044;2023-03-23T03:46:29;5.10;99.90
33761;DHT22;20084;47.912;19.044;2023-03-23T03:48:57;5.00;99.90
33761;DHT22;20084;47.912;19.044;2023-03-23T03:51:24;5.00;99.90
33761;DHT22;20084;47.912;19.044;2023-03-23T03:53:50;5.00;99.90
33761;DHT22;20084;47.912;19.044;2023-03-23T03:56:16;4.90;99.90
33761;DHT22;20084;47.912;19.044;2023-03-23T03:58:42;4.90;99.90
33761;DHT22;20084;47.912;19.044;2023-03-23T04:01:08;4.80;99.90
33761;DHT22;20084;47.912;19.044;2023-03-23T04:03:38;4.80;99.90
33761;DHT22;20084;47.912;19.044;2023-03-23T04:06:04;4.80;99.90
33761;DHT22;20084;47.912;19.044;2023-03-23T04:08:30;4.70;99.90
33761;DHT22;20084;47.912;19.044;2023-03-23T04:10:55;4.70;99.90
33761;DHT22;20084;47.912;19.044;2023-03-23T04:13:22;4.80;99.90
33761;DHT22;20084;47.912;19.044;2023-03-23T04:15:48;4.80;99.90
33761;DHT22;20084;47.912;19.044;2023-03-23T04:18:15;4.90;99.90
33761;DHT22;20084;47.912;19.044;2023-03-23T04:20:46;4.90;99.90
33761;DHT22;20084;47.912;19.044;2023-03-23T04:23:16;4.90;99.90
33761;DHT22;20084;47.912;19.044;2023-03-23T04:25:48;4.90;99.90
33761;DHT22;20084;47.912;19.044;2023-03-23T04:28:15;5.00;99.90
33761;DHT22;20084;47.912;19.044;2023-03-23T04:30:46;5.00;99.90
33761;DHT22;20084;47.912;19.044;2023-03-23T04:33:14;5.00;99.90
33761;DHT22;20084;47.912;19.044;2023-03-23T04:35:41;5.20;99.90
33761;DHT22;20084;47.912;19.044;2023-03-23T04:38:08;5.40;99.90
33761;DHT22;20084;47.912;19.044;2023-03-23T04:40:38;5.60;99.90
33761;DHT22;20084;47.912;19.044;2023-03-23T04:43:04;5.70;99.90
33761;DHT22;20084;47.912;19.044;2023-03-23T04:45:32;5.70;99.90
33761;DHT22;20084;47.912;19.044;2023-03-23T04:47:57;5.70;99.90
33761;DHT22;20084;47.912;19.044;2023-03-23T04:50:27;5.60;99.90
33761;DHT22;20084;47.912;19.044;2023-03-23T04:52:53;5.40;99.90
33761;DHT22;20084;47.912;19.044;2023-03-23T04:55:20;5.30;99.90
33761;DHT22;20084;47.912;19.044;2023-03-23T04:57:46;5.20;99.90
33761;DHT22;20084;47.912;19.044;2023-03-23T05:00:13;5.10;99.90
33761;DHT22;20084;47.912;19.044;2023-03-23T05:02:42;4.90;99.90
33761;DHT22;20084;47.912;19.044;2023-03-23T05:05:10;4.80;99.90
33761;DHT22;20084;47.912;19.044;2023-03-23T05:07:37;4.80;99.90
33761;DHT22;20084;47.912;19.044;2023-03-23T05:10:04;4.80;99.90
33761;DHT22;20084;47.912;19.044;2023-03-23T05:12:31;4.80;99.90
33761;DHT22;20084;47.912;19.044;2023-03-23T05:14:56;4.80;99.90
33761;DHT22;20084;47.912;19.044;2023-03-23T05:17:22;4.80;99.90
33761;DHT22;20084;47.912;19.044;2023-03-23T05:19:50;4.80;99.90
33761;DHT22;20084;47.912;19.044;2023-03-23T05:22:16;4.90;99.90
33761;DHT22;20084;47.912;19.044;2023-03-23T05:24:42;5.00;99.90
33761;DHT22;20084;47.912;19.044;2023-03-23T05:27:09;5.00;99.90
33761;DHT22;20084;47.912;19.044;2023-03-23T05:29:35;5.00;99.90
33761;DHT22;20084;47.912;19.044;2023-03-23T05:32:04;5.10;99.90
33761;DHT22;20084;47.912;19.044;2023-03-23T05:34:31;5.20;99.90
33761;DHT22;20084;47.912;19.044;2023-03-23T05:37:00;5.40;99.90
33761;DHT22;20084;47.912;19.044;2023-03-23T05:39:27;5.60;99.90
33761;DHT22;20084;47.912;19.044;2023-03-23T05:41:53;5.80;99.90
33761;DHT22;20084;47.912;19.044;2023-03-23T05:44:19;5.90;99.90
33761;DHT22;20084;47.912;19.044;2023-03-23T05:46:45;6.00;99.90
33761;DHT22;20084;47.912;19.044;2023-03-23T05:49:11;6.10;99.90
33761;DHT22;20084;47.912;19.044;2023-03-23T05:51:37;6.30;99.90
33761;DHT22;20084;47.912;19.044;2023-03-23T05:54:03;6.40;99.90
33761;DHT22;20084;47.912;19.044;2023-03-23T05:56:29;6.60;99.90
33761;DHT22;20084;47.912;19.044;2023-03-23T05:58:56;6.80;99.90
33761;DHT22;20084;47.912;19.044;2023-03-23T06:01:22;7.10;99.90
33761;DHT22;20084;47.912;19.044;2023-03-23T06:03:48;7.40;99.90
33761;DHT22;20084;47.912;19.044;2023-03-23T06:06:16;7.50;99.90
33761;DHT22;20084;47.912;19.044;2023-03-23T06:08:43;7.80;99.90
33761;DHT22;20084;47.912;19.044;2023-03-23T06:11:09;8.00;99.90
33761;DHT22;20084;47.912;19.044;2023-03-23T06:13:35;8.10;99.90
33761;DHT22;20084;47.912;19.044;2023-03-23T06:16:02;8.30;99.90
33761;DHT22;20084;47.912;19.044;2023-03-23T06:18:29;8.50;99.90
33761;DHT22;20084;47.912;19.044;2023-03-23T06:20:59;8.70;99.90
33761;DHT22;20084;47.912;19.044;2023-03-23T06:23:26;9.00;99.90
33761;DHT22;20084;47.912;19.044;2023-03-23T06:26:01;9.20;99.90
33761;DHT22;20084;47.912;19.044;2023-03-23T06:28:29;9.50;99.90
33761;DHT22;20084;47.912;19.044;2023-03-23T06:30:55;9.60;99.90
33761;DHT22;20084;47.912;19.044;2023-03-23T06:33:23;9.80;99.90
33761;DHT22;20084;47.912;19.044;2023-03-23T06:35:50;9.90;99.90
33761;DHT22;20084;47.912;19.044;2023-03-23T06:38:17;10.10;99.90
33761;DHT22;20084;47.912;19.044;2023-03-23T06:40:43;10.30;99.90
33761;DHT22;20084;47.912;19.044;2023-03-23T06:43:12;10.40;99.90
33761;DHT22;20084;47.912;19.044;2023-03-23T06:45:39;10.60;99.90
33761;DHT22;20084;47.912;19.044;2023-03-23T06:48:06;10.70;99.90
33761;DHT22;20084;47.912;19.044;2023-03-23T06:50:32;10.90;99.90
33761;DHT22;20084;47.912;19.044;2023-03-23T06:52:58;11.00;99.90
33761;DHT22;20084;47.912;19.044;2023-03-23T06:55:23;11.10;99.90
33761;DHT22;20084;47.912;19.044;2023-03-23T06:57:49;11.20;99.90
33761;DHT22;20084;47.912;19.044;2023-03-23T07:00:15;11.40;99.90
33761;DHT22;20084;47.912;19.044;2023-03-23T07:02:41;11.50;99.90
33761;DHT22;20084;47.912;19.044;2023-03-23T07:05:07;11.70;99.90
33761;DHT22;20084;47.912;19.044;2023-03-23T07:07:35;11.90;99.90
33761;DHT22;20084;47.912;19.044;2023-03-23T07:10:01;12.00;99.90
33761;DHT22;20084;47.912;19.044;2023-03-23T07:12:27;12.10;99.90
33761;DHT22;20084;47.912;19.044;2023-03-23T07:14:54;12.30;99.90
33761;DHT22;20084;47.912;19.044;2023-03-23T07:17:21;12.40;99.90
33761;DHT22;20084;47.912;19.044;2023-03-23T07:19:46;12.50;99.90
33761;DHT22;20084;47.912;19.044;2023-03-23T07:22:12;12.70;99.90
33761;DHT22;20084;47.912;19.044;2023-03-23T07:24:38;12.80;99.90
33761;DHT22;20084;47.912;19.044;2023-03-23T07:27:04;12.90;99.90
33761;DHT22;20084;47.912;19.044;2023-03-23T07:29:29;13.10;99.90
33761;DHT22;20084;47.912;19.044;2023-03-23T07:31:56;13.20;99.90
33761;DHT22;20084;47.912;19.044;2023-03-23T07:34:22;13.30;99.90
33761;DHT22;20084;47.912;19.044;2023-03-23T07:36:48;13.30;99.90
33761;DHT22;20084;47.912;19.044;2023-03-23T07:39:14;13.40;99.90
33761;DHT22;20084;47.912;19.044;2023-03-23T07:41:40;13.60;99.90
33761;DHT22;20084;47.912;19.044;2023-03-23T07:44:05;13.70;99.90
33761;DHT22;20084;47.912;19.044;2023-03-23T07:46:32;13.90;99.90
33761;DHT22;20084;47.912;19.044;2023-03-23T07:48:58;14.10;99.90
33761;DHT22;20084;47.912;19.044;2023-03-23T07:51:24;14.10;99.90
33761;DHT22;20084;47.912;19.044;2023-03-23T07:53:50;14.20;99.90
33761;DHT22;20084;47.912;19.044;2023-03-23T07:56:17;14.20;99.90
33761;DHT22;20084;47.912;19.044;2023-03-23T07:58:48;14.30;99.90
33761;DHT22;20084;47.912;19.044;2023-03-23T08:01:14;14.40;99.90
33761;DHT22;20084;47.912;19.044;2023-03-23T08:03:40;14.40;99.90
33761;DHT22;20084;47.912;19.044;2023-03-23T08:06:05;14.50;99.90
33761;DHT22;20084;47.912;19.044;2023-03-23T08:08:31;14.60;99.90
33761;DHT22;20084;47.912;19.044;2023-03-23T08:10:58;14.70;99.90
33761;DHT22;20084;47.912;19.044;2023-03-23T08:13:24;14.90;99.90
33761;DHT22;20084;47.912;19.044;2023-03-23T08:15:50;15.00;98.40
33761;DHT22;20084;47.912;19.044;2023-03-23T08:18:17;15.10;98.50
33761;DHT22;20084;47.912;19.044;2023-03-23T08:20:43;15.20;98.00
33761;DHT22;20084;47.912;19.044;2023-03-23T08:23:09;15.40;97.30
33761;DHT22;20084;47.912;19.044;2023-03-23T08:25:35;15.50;96.50
33761;DHT22;20084;47.912;19.044;2023-03-23T08:28:01;15.60;96.50
33761;DHT22;20084;47.912;19.044;2023-03-23T08:30:28;15.70;95.90
33761;DHT22;20084;47.912;19.044;2023-03-23T08:32:57;15.80;97.00
33761;DHT22;20084;47.912;19.044;2023-03-23T08:35:23;16.10;95.50
33761;DHT22;20084;47.912;19.044;2023-03-23T08:37:49;16.10;94.10
33761;DHT22;20084;47.912;19.044;2023-03-23T08:40:22;16.20;92.90
33761;DHT22;20084;47.912;19.044;2023-03-23T08:42:49;16.20;92.50
33761;DHT22;20084;47.912;19.044;2023-03-23T08:45:18;16.30;91.70
33761;DHT22;20084;47.912;19.044;2023-03-23T08:47:45;16.40;91.20
33761;DHT22;20084;47.912;19.044;2023-03-23T08:50:14;16.40;91.30
33761;DHT22;20084;47.912;19.044;2023-03-23T08:52:40;16.40;91.40
33761;DHT22;20084;47.912;19.044;2023-03-23T08:55:07;16.50;91.90
33761;DHT22;20084;47.912;19.044;2023-03-23T08:57:34;16.50;91.80
33761;DHT22;20084;47.912;19.044;2023-03-23T09:00:05;16.50;91.60
33761;DHT22;20084;47.912;19.044;2023-03-23T09:02:40;16.60;91.40
33761;DHT22;20084;47.912;19.044;2023-03-23T09:05:06;16.60;91.10
33761;DHT22;20084;47.912;19.044;2023-03-23T09:07:32;16.70;90.40
33761;DHT22;20084;47.912;19.044;2023-03-23T09:09:58;16.70;90.70
33761;DHT22;20084;47.912;19.044;2023-03-23T09:12:24;16.80;90.50
33761;DHT22;20084;47.912;19.044;2023-03-23T09:14:49;16.90;90.30
33761;DHT22;20084;47.912;19.044;2023-03-23T09:17:15;17.00;89.10
33761;DHT22;20084;47.912;19.044;2023-03-23T09:19:41;17.00;89.40
33761;DHT22;20084;47.912;19.044;2023-03-23T09:22:06;17.10;87.80
33761;DHT22;20084;47.912;19.044;2023-03-23T09:24:33;17.10;86.90
33761;DHT22;20084;47.912;19.044;2023-03-23T09:26:59;17.20;86.60
33761;DHT22;20084;47.912;19.044;2023-03-23T09:29:26;17.20;86.60
33761;DHT22;20084;47.912;19.044;2023-03-23T09:31:53;17.40;86.70
33761;DHT22;20084;47.912;19.044;2023-03-23T09:34:18;17.50;86.70
33761;DHT22;20084;47.912;19.044;2023-03-23T09:36:44;17.60;82.80
33761;DHT22;20084;47.912;19.044;2023-03-23T09:39:10;17.60;82.90
33761;DHT22;20084;47.912;19.044;2023-03-23T09:41:58;17.60;82.40
33761;DHT22;20084;47.912;19.044;2023-03-23T09:50:16;17.60;84.90
33761;DHT22;20084;47.912;19.044;2023-03-23T09:52:48;17.60;83.80
33761;DHT22;20084;47.912;19.044;2023-03-23T09:55:17;17.60;83.70
33761;DHT22;20084;47.912;19.044;2023-03-23T10:00:29;17.60;83.60
33761;DHT22;20084;47.912;19.044;2023-03-23T10:03:37;17.60;82.00
33761;DHT22;20084;47.912;19.044;2023-03-23T10:06:04;17.50;82.00
33761;DHT22;20084;47.912;19.044;2023-03-23T10:08:31;17.50;84.30
33761;DHT22;20084;47.912;19.044;2023-03-23T10:16:34;17.40;83.40
33761;DHT22;20084;47.912;19.044;2023-03-23T10:21:28;17.50;83.20
33761;DHT22;20084;47.912;19.044;2023-03-23T10:24:01;17.60;84.10
33761;DHT22;20084;47.912;19.044;2023-03-23T10:32:11;17.70;82.10
33761;DHT22;20084;47.912;19.044;2023-03-23T10:34:42;17.80;83.10
33761;DHT22;20084;47.912;19.044;2023-03-23T10:37:20;17.80;82.10
33761;DHT22;20084;47.912;19.044;2023-03-23T10:39:55;17.90;82.00
33761;DHT22;20084;47.912;19.044;2023-03-23T10:44:52;18.00;80.70
33761;DHT22;20084;47.912;19.044;2023-03-23T10:47:18;18.00;80.30
33761;DHT22;20084;47.912;19.044;2023-03-23T10:52:35;17.90;78.90
33761;DHT22;20084;47.912;19.044;2023-03-23T10:55:07;17.90;79.70
33761;DHT22;20084;47.912;19.044;2023-03-23T10:57:35;17.90;78.90
33761;DHT22;20084;47.912;19.044;2023-03-23T11:00:16;18.00;78.50
33761;DHT22;20084;47.912;19.044;2023-03-23T11:02:45;18.00;77.20
33761;DHT22;20084;47.912;19.044;2023-03-23T11:05:24;18.00;78.40
33761;DHT22;20084;47.912;19.044;2023-03-23T11:07:56;18.10;79.00
33761;DHT22;20084;47.912;19.044;2023-03-23T11:10:23;18.10;77.90
33761;DHT22;20084;47.912;19.044;2023-03-23T11:12:49;18.20;78.00
33761;DHT22;20084;47.912;19.044;2023-03-23T11:15:39;18.20;78.20
33761;DHT22;20084;47.912;19.044;2023-03-23T11:18:10;18.20;76.40
33761;DHT22;20084;47.912;19.044;2023-03-23T11:20:39;18.20;76.20
33761;DHT22;20084;47.912;19.044;2023-03-23T11:23:20;18.30;76.40
33761;DHT22;20084;47.912;19.044;2023-03-23T11:31:28;18.60;75.30
33761;DHT22;20084;47.912;19.044;2023-03-23T11:34:19;18.80;77.00
33761;DHT22;20084;47.912;19.044;2023-03-23T11:37:08;19.10;75.30
33761;DHT22;20084;47.912;19.044;2023-03-23T11:39:49;19.10;73.70
33761;DHT22;20084;47.912;19.044;2023-03-23T11:45:21;19.30;71.90
33761;DHT22;20084;47.912;19.044;2023-03-23T11:53:54;19.10;70.90
33761;DHT22;20084;47.912;19.044;2023-03-23T11:56:34;19.00;72.20
33761;DHT22;20084;47.912;19.044;2023-03-23T11:59:00;19.10;71.70
33761;DHT22;20084;47.912;19.044;2023-03-23T12:04:33;19.40;71.10
33761;DHT22;20084;47.912;19.044;2023-03-23T12:10:41;19.40;70.70
33761;DHT22;20084;47.912;19.044;2023-03-23T12:24:16;19.70;70.00
33761;DHT22;20084;47.912;19.044;2023-03-23T12:27:12;19.80;69.60
33761;DHT22;20084;47.912;19.044;2023-03-23T12:33:01;19.90;70.50
33761;DHT22;20084;47.912;19.044;2023-03-23T12:42:02;20.00;69.70
33761;DHT22;20084;47.912;19.044;2023-03-23T12:44:09;20.10;68.40
33761;DHT22;20084;47.912;19.044;2023-03-23T12:47:00;20.10;69.30
33761;DHT22;20084;47.912;19.044;2023-03-23T12:52:15;20.20;68.40
33761;DHT22;20084;47.912;19.044;2023-03-23T12:54:56;20.20;68.70
33761;DHT22;20084;47.912;19.044;2023-03-23T12:57:54;20.10;68.50
33761;DHT22;20084;47.912;19.044;2023-03-23T13:00:28;20.10;68.50
33761;DHT22;20084;47.912;19.044;2023-03-23T13:06:43;20.30;69.30
33761;DHT22;20084;47.912;19.044;2023-03-23T13:11:44;20.30;68.30
33761;DHT22;20084;47.912;19.044;2023-03-23T13:23:08;20.60;67.30
33761;DHT22;20084;47.912;19.044;2023-03-23T13:26:06;20.60;66.20
33761;DHT22;20084;47.912;19.044;2023-03-23T13:29:01;20.60;65.70
33761;DHT22;20084;47.912;19.044;2023-03-23T13:31:41;20.70;67.90
33761;DHT22;20084;47.912;19.044;2023-03-23T13:34:26;20.80;66.00
33761;DHT22;20084;47.912;19.044;2023-03-23T13:39:23;20.70;66.30
33761;DHT22;20084;47.912;19.044;2023-03-23T13:44:42;20.90;65.90
33761;DHT22;20084;47.912;19.044;2023-03-23T13:49:54;21.20;65.80
33761;DHT22;20084;47.912;19.044;2023-03-23T13:52:24;21.30;63.50
33761;DHT22;20084;47.912;19.044;2023-03-23T13:54:52;21.40;62.70
33761;DHT22;20084;47.912;19.044;2023-03-23T13:57:37;21.40;63.60
33761;DHT22;20084;47.912;19.044;2023-03-23T14:00:33;21.50;61.70
33761;DHT22;20084;47.912;19.044;2023-03-23T14:08:40;21.40;61.20
33761;DHT22;20084;47.912;19.044;2023-03-23T14:16:28;21.10;61.20
33761;DHT22;20084;47.912;19.044;2023-03-23T14:18:59;21.00;61.20
33761;DHT22;20084;47.912;19.044;2023-03-23T14:21:38;21.00;62.20
33761;DHT22;20084;47.912;19.044;2023-03-23T14:24:26;21.10;60.30
33761;DHT22;20084;47.912;19.044;2023-03-23T14:29:34;21.10;60.50
33761;DHT22;20084;47.912;19.044;2023-03-23T14:31:59;21.00;61.20
33761;DHT22;20084;47.912;19.044;2023-03-23T14:34:28;20.90;61.70
33761;DHT22;20084;47.912;19.044;2023-03-23T14:36:55;21.00;61.90
33761;DHT22;20084;47.912;19.044;2023-03-23T14:39:31;21.00;61.30
33761;DHT22;20084;47.912;19.044;2023-03-23T14:42:11;21.10;61.00
33761;DHT22;20084;47.912;19.044;2023-03-23T14:44:46;21.10;61.60
33761;DHT22;20084;47.912;19.044;2023-03-23T14:47:28;21.00;61.00
33761;DHT22;20084;47.912;19.044;2023-03-23T14:49:59;20.90;60.70
33761;DHT22;20084;47.912;19.044;2023-03-23T14:52:27;20.70;61.60
33761;DHT22;20084;47.912;19.044;2023-03-23T14:54:54;20.60;62.30
33761;DHT22;20084;47.912;19.044;2023-03-23T14:57:28;20.60;62.90
33761;DHT22;20084;47.912;19.044;2023-03-23T14:59:55;20.60;61.90
33761;DHT22;20084;47.912;19.044;2023-03-23T15:02:32;20.70;62.20
33761;DHT22;20084;47.912;19.044;2023-03-23T15:05:27;20.90;62.00
33761;DHT22;20084;47.912;19.044;2023-03-23T15:07:59;21.00;61.10
33761;DHT22;20084;47.912;19.044;2023-03-23T15:10:25;21.10;61.30
33761;DHT22;20084;47.912;19.044;2023-03-23T15:12:52;20.90;61.90
33761;DHT22;20084;47.912;19.044;2023-03-23T15:15:29;20.80;61.90
33761;DHT22;20084;47.912;19.044;2023-03-23T15:17:56;20.80;62.00
33761;DHT22;20084;47.912;19.044;2023-03-23T15:22:55;20.60;62.00
33761;DHT22;20084;47.912;19.044;2023-03-23T15:25:23;20.70;63.00
33761;DHT22;20084;47.912;19.044;2023-03-23T15:27:54;20.90;61.50
33761;DHT22;20084;47.912;19.044;2023-03-23T15:32:54;21.10;61.70
33761;DHT22;20084;47.912;19.044;2023-03-23T15:35:25;21.10;60.80
33761;DHT22;20084;47.912;19.044;2023-03-23T15:37:53;21.00;61.20
33761;DHT22;20084;47.912;19.044;2023-03-23T15:40:24;20.80;60.50
33761;DHT22;20084;47.912;19.044;2023-03-23T15:43:06;20.70;61.50
33761;DHT22;20084;47.912;19.044;2023-03-23T15:45:32;20.60;61.40
33761;DHT22;20084;47.912;19.044;2023-03-23T15:48:09;20.60;60.60
33761;DHT22;20084;47.912;19.044;2023-03-23T15:50:35;20.50;60.60
33761;DHT22;20084;47.912;19.044;2023-03-23T15:53:15;20.40;61.50
33761;DHT22;20084;47.912;19.044;2023-03-23T15:55:43;20.20;61.90
33761;DHT22;20084;47.912;19.044;2023-03-23T15:58:11;20.10;62.50
33761;DHT22;20084;47.912;19.044;2023-03-23T16:00:38;20.10;62.60
33761;DHT22;20084;47.912;19.044;2023-03-23T16:03:10;20.00;62.60
33761;DHT22;20084;47.912;19.044;2023-03-23T16:05:36;19.90;62.70
33761;DHT22;20084;47.912;19.044;2023-03-23T16:08:02;19.80;63.10
33761;DHT22;20084;47.912;19.044;2023-03-23T16:10:29;19.80;63.20
33761;DHT22;20084;47.912;19.044;2023-03-23T16:12:55;19.70;63.70
33761;DHT22;20084;47.912;19.044;2023-03-23T16:15:20;19.70;63.50
33761;DHT22;20084;47.912;19.044;2023-03-23T16:17:46;19.60;63.50
33761;DHT22;20084;47.912;19.044;2023-03-23T16:20:17;19.50;63.50
33761;DHT22;20084;47.912;19.044;2023-03-23T16:22:44;19.50;63.60
33761;DHT22;20084;47.912;19.044;2023-03-23T16:25:11;19.50;63.70
33761;DHT22;20084;47.912;19.044;2023-03-23T16:27:38;19.50;64.00
33761;DHT22;20084;47.912;19.044;2023-03-23T16:30:32;19.60;64.40
33761;DHT22;20084;47.912;19.044;2023-03-23T16:32:58;19.50;63.70
33761;DHT22;20084;47.912;19.044;2023-03-23T16:35:24;19.40;63.80
33761;DHT22;20084;47.912;19.044;2023-03-23T16:37:52;19.40;64.10
33761;DHT22;20084;47.912;19.044;2023-03-23T16:40:19;19.30;64.40
33761;DHT22;20084;47.912;19.044;2023-03-23T16:42:45;19.30;64.40
33761;DHT22;20084;47.912;19.044;2023-03-23T16:45:12;19.20;64.80
33761;DHT22;20084;47.912;19.044;2023-03-23T16:47:38;19.20;64.50
33761;DHT22;20084;47.912;19.044;2023-03-23T16:50:06;19.10;64.70
33761;DHT22;20084;47.912;19.044;2023-03-23T16:52:33;19.10;65.20
33761;DHT22;20084;47.912;19.044;2023-03-23T16:54:59;19.10;65.20
33761;DHT22;20084;47.912;19.044;2023-03-23T16:57:25;19.00;65.20
33761;DHT22;20084;47.912;19.044;2023-03-23T16:59:51;18.90;65.60
33761;DHT22;20084;47.912;19.044;2023-03-23T17:02:17;18.90;66.40
33761;DHT22;20084;47.912;19.044;2023-03-23T17:04:44;18.80;66.00
33761;DHT22;20084;47.912;19.044;2023-03-23T17:07:11;18.70;66.20
33761;DHT22;20084;47.912;19.044;2023-03-23T17:09:37;18.70;67.70
33761;DHT22;20084;47.912;19.044;2023-03-23T17:12:03;18.50;68.60
33761;DHT22;20084;47.912;19.044;2023-03-23T17:14:30;18.40;69.50
33761;DHT22;20084;47.912;19.044;2023-03-23T17:16:56;18.20;70.20
33761;DHT22;20084;47.912;19.044;2023-03-23T17:19:22;18.00;71.30
33761;DHT22;20084;47.912;19.044;2023-03-23T17:21:47;17.80;72.50
33761;DHT22;20084;47.912;19.044;2023-03-23T17:24:13;17.70;72.70
33761;DHT22;20084;47.912;19.044;2023-03-23T17:26:39;17.60;73.10
33761;DHT22;20084;47.912;19.044;2023-03-23T17:29:05;17.50;73.10
33761;DHT22;20084;47.912;19.044;2023-03-23T17:31:30;17.50;73.60
33761;DHT22;20084;47.912;19.044;2023-03-23T17:33:56;17.40;73.30
33761;DHT22;20084;47.912;19.044;2023-03-23T17:36:23;17.30;74.30
33761;DHT22;20084;47.912;19.044;2023-03-23T17:38:49;17.20;74.20
33761;DHT22;20084;47.912;19.044;2023-03-23T17:41:15;17.20;74.80
33761;DHT22;20084;47.912;19.044;2023-03-23T17:43:41;17.00;77.20